Time;durP1;ratioP1;P1;durP2;ratioP2;P2;SDS_P1;SDS_P2;PMS_P1;PMS_P2;Temp;Humidity;BMP_temperature;BMP_pressure;BME280_temperature;BME280_humidity;BME280_pressure;Samples;Min_cycle;Max_cycle;Signal;HPM_P1;HPM_P2
2021/08/02 00:00:05;;;;;;;6.05;2.60;;;;;;;;;;5089532;28;20038;-75
2021/08/02 00:02:45;;;;;;;6.45;2.95;;;;;;;;;;5110033;28;20016;-75
2021/08/02 00:05:10;;;;;;;7.38;2.90;;;;;;;;;;5111222;28;20023;-75
2021/08/02 00:07:40;;;;;;;7.63;2.72;;;;;;;;;;5111847;28;20494;-75
2021/08/02 00:10:16;;;;;;;6.05;2.90;;;;;;;;;;5110918;28;20026;-75
2021/08/02 00:12:47;;;;;;;9.10;3.63;;;;;;;;;;5118285;28;20222;-75
2021/08/02 00:15:16;;;;;;;5.03;2.83;;;;;;;;;;5131586;28;20303;-75
2021/08/02 00:17:44;;;;;;;6.43;2.95;;;;;;;;;;5132034;28;20416;-75
2021/08/02 00:20:18;;;;;;;5.20;2.78;;;;;;;;;;5131468;28;20016;-75
2021/08/02 00:22:43;;;;;;;7.50;2.63;;;;;;;;;;5132002;28;20023;-75
2021/08/02 00:25:10;;;;;;;5.50;2.70;;;;;;;;;;5131382;28;20499;-75
2021/08/02 00:27:36;;;;;;;4.60;2.75;;;;;;;;;;5131641;28;20342;-75
2021/08/02 00:30:04;;;;;;;6.40;2.50;;;;;;;;;;5131601;28;20319;-75
2021/08/02 00:32:29;;;;;;;8.57;3.30;;;;;;;;;;5131507;28;20034;-75
2021/08/02 00:34:55;;;;;;;7.45;2.50;;;;;;;;;;5131646;28;20382;-74
2021/08/02 00:37:34;;;;;;;5.97;2.90;;;;;;;;;;5131356;28;20183;-75
2021/08/02 00:40:33;;;;;;;6.65;3.28;;;;;;;;;;5131396;28;20411;-75
2021/08/02 00:43:15;;;;;;;7.63;3.58;;;;;;;;;;5131787;28;20027;-75
2021/08/02 00:45:43;;;;;;;7.70;2.65;;;;;;;;;;5131468;28;20027;-75
2021/08/02 00:48:14;;;;;;;8.48;3.55;;;;;;;;;;5110560;28;20139;-75
2021/08/02 00:50:44;;;;;;;4.10;2.72;;;;;;;;;;5110775;28;20114;-75
2021/08/02 00:53:12;;;;;;;4.32;2.55;;;;;;;;;;5110529;28;20562;-75
2021/08/02 00:55:51;;;;;;;6.65;2.67;;;;;;;;;;5110842;28;20019;-75
2021/08/02 00:58:20;;;;;;;6.25;2.63;;;;;;;;;;5110592;28;20490;-75
2021/08/02 01:00:47;;;;;;;6.97;2.83;;;;;;;;;;5110801;28;20026;-76
2021/08/02 01:03:14;;;;;;;6.53;3.17;;;;;;;;;;5110600;28;20068;-75
2021/08/02 01:05:41;;;;;;;7.70;2.78;;;;;;;;;;5113209;28;20428;-75
2021/08/02 01:08:19;;;;;;;7.68;3.08;;;;;;;;;;5114376;28;20020;-76
2021/08/02 01:10:48;;;;;;;6.07;2.70;;;;;;;;;;5114383;28;20168;-76
2021/08/02 01:13:16;;;;;;;6.10;2.75;;;;;;;;;;5125641;27;20023;-75
2021/08/02 01:15:46;;;;;;;5.25;3.05;;;;;;;;;;5134983;27;20142;-75
2021/08/02 01:18:12;;;;;;;6.97;2.97;;;;;;;;;;5134687;27;20023;-75
2021/08/02 01:20:42;;;;;;;7.07;2.85;;;;;;;;;;5134882;27;20046;-76
2021/08/02 01:23:09;;;;;;;5.65;2.78;;;;;;;;;;5134715;27;20026;-76
2021/08/02 01:25:34;;;;;;;7.63;3.17;;;;;;;;;;5134785;27;20079;-75
2021/08/02 01:28:15;;;;;;;6.75;2.70;;;;;;;;;;5134744;27;20106;-75
2021/08/02 01:30:53;;;;;;;5.68;2.47;;;;;;;;;;5134500;27;20076;-75
2021/08/02 01:33:28;;;;;;;5.85;2.60;;;;;;;;;;5134383;27;20066;-75
2021/08/02 01:35:58;;;;;;;6.35;2.80;;;;;;;;;;5133231;27;20023;-75
2021/08/02 01:38:25;;;;;;;6.13;2.88;;;;;;;;;;5134339;27;20046;-75
2021/08/02 01:40:50;;;;;;;6.60;3.20;;;;;;;;;;5134573;27;20373;-76
2021/08/02 01:43:16;;;;;;;8.23;3.28;;;;;;;;;;5134302;27;20027;-75
2021/08/02 01:45:48;;;;;;;5.75;3.10;;;;;;;;;;5134345;27;20030;-76
2021/08/02 01:48:22;;;;;;;7.53;2.85;;;;;;;;;;5113473;28;20123;-76
2021/08/02 01:51:19;;;;;;;6.22;2.92;;;;;;;;;;5113643;28;20106;-75
2021/08/02 01:53:51;;;;;;;6.10;3.00;;;;;;;;;;5113658;28;20054;-75
2021/08/02 01:56:20;;;;;;;5.43;3.00;;;;;;;;;;5113468;28;20073;-75
2021/08/02 01:59:01;;;;;;;5.45;2.95;;;;;;;;;;5095226;28;20028;-75
2021/08/02 02:01:27;;;;;;;4.38;2.95;;;;;;;;;;5113336;28;20027;-75
2021/08/02 02:03:55;;;;;;;7.20;2.90;;;;;;;;;;5113436;28;20053;-75
2021/08/02 02:06:27;;;;;;;7.65;3.33;;;;;;;;;;5113265;28;20028;-75
2021/08/02 02:08:58;;;;;;;6.80;2.78;;;;;;;;;;5113259;28;20023;-75
2021/08/02 02:11:25;;;;;;;7.78;2.88;;;;;;;;;;5113209;28;20098;-75
2021/08/02 02:13:55;;;;;;;5.10;3.00;;;;;;;;;;5113256;28;20027;-76
2021/08/02 02:16:22;;;;;;;5.88;2.75;;;;;;;;;;5112125;28;20479;-76
2021/08/02 02:18:50;;;;;;;8.23;3.10;;;;;;;;;;5113209;28;20080;-75
2021/08/02 02:21:22;;;;;;;7.05;3.28;;;;;;;;;;5113020;28;20023;-76
2021/08/02 02:23:48;;;;;;;6.63;3.30;;;;;;;;;;5113167;28;20031;-76
2021/08/02 02:26:15;;;;;;;6.80;2.92;;;;;;;;;;5112933;28;20023;-76
2021/08/02 02:28:41;;;;;;;7.32;3.10;;;;;;;;;;5112971;28;20027;-76
2021/08/02 02:31:08;;;;;;;9.45;3.05;;;;;;;;;;5111600;28;20083;-76
2021/08/02 02:33:34;;;;;;;5.70;2.85;;;;;;;;;;5112761;28;20092;-76
2021/08/02 02:36:01;;;;;;;6.70;2.88;;;;;;;;;;5113541;28;20028;-76
2021/08/02 02:38:28;;;;;;;5.25;2.75;;;;;;;;;;5112626;28;20059;-76
2021/08/02 02:40:54;;;;;;;9.18;2.92;;;;;;;;;;5113062;28;20028;-76
2021/08/02 02:43:21;;;;;;;6.78;3.10;;;;;;;;;;5112701;28;20042;-76
2021/08/02 02:45:47;;;;;;;7.70;3.08;;;;;;;;;;5113014;27;20027;-76
2021/08/02 02:48:14;;;;;;;8.70;3.25;;;;;;;;;;5133207;27;20427;-76
2021/08/02 02:50:44;;;;;;;7.80;2.95;;;;;;;;;;5133036;27;20096;-76
2021/08/02 02:53:11;;;;;;;5.50;3.00;;;;;;;;;;5133112;27;20050;-76
2021/08/02 02:55:38;;;;;;;7.38;3.38;;;;;;;;;;5133106;27;20035;-76
2021/08/02 02:58:04;;;;;;;5.32;3.20;;;;;;;;;;5131872;27;20039;-76
2021/08/02 03:00:30;;;;;;;7.57;3.40;;;;;;;;;;5119374;27;20099;-76
2021/08/02 03:02:57;;;;;;;4.85;2.60;;;;;;;;;;5112150;28;20024;-76
2021/08/02 03:05:23;;;;;;;6.47;2.58;;;;;;;;;;5112124;28;20046;-76
2021/08/02 03:07:55;;;;;;;7.13;2.95;;;;;;;;;;5112292;28;20032;-76
2021/08/02 03:10:22;;;;;;;7.13;2.83;;;;;;;;;;5111829;28;20032;-76
2021/08/02 03:12:48;;;;;;;5.72;2.72;;;;;;;;;;5111999;28;20027;-76
2021/08/02 03:15:14;;;;;;;4.00;2.50;;;;;;;;;;5111952;28;20055;-76
2021/08/02 03:17:40;;;;;;;6.82;3.08;;;;;;;;;;5111765;28;20059;-76
2021/08/02 03:20:06;;;;;;;5.43;3.00;;;;;;;;;;5112026;28;20027;-76
2021/08/02 03:22:40;;;;;;;5.63;3.15;;;;;;;;;;5111768;28;20031;-76
2021/08/02 03:25:20;;;;;;;8.30;2.95;;;;;;;;;;5111991;28;20114;-77
2021/08/02 03:28:05;;;;;;;6.13;2.67;;;;;;;;;;5111831;28;20073;-77
2021/08/02 03:30:34;;;;;;;6.82;2.80;;;;;;;;;;5110860;28;20024;-77
2021/08/02 03:33:01;;;;;;;11.20;4.00;;;;;;;;;;5110690;27;20020;-78
2021/08/02 03:35:28;;;;;;;6.22;3.45;;;;;;;;;;5111644;28;20450;-78
2021/08/02 03:37:54;;;;;;;5.25;3.05;;;;;;;;;;5110374;28;20028;-77
2021/08/02 03:40:19;;;;;;;8.40;3.13;;;;;;;;;;5111492;28;20430;-77
2021/08/02 03:42:47;;;;;;;9.00;2.90;;;;;;;;;;5111696;28;20107;-76
2021/08/02 03:45:15;;;;;;;5.53;2.85;;;;;;;;;;5111668;28;20030;-77
2021/08/02 03:47:41;;;;;;;8.27;3.22;;;;;;;;;;5128039;27;20491;-76
2021/08/02 03:50:07;;;;;;;7.88;3.05;;;;;;;;;;5132298;27;20023;-76
2021/08/02 03:52:33;;;;;;;9.18;3.22;;;;;;;;;;5131575;27;20019;-76
2021/08/02 03:54:59;;;;;;;6.20;2.75;;;;;;;;;;5131906;27;20027;-76
2021/08/02 03:57:28;;;;;;;9.75;3.00;;;;;;;;;;5130965;27;20030;-77
2021/08/02 03:59:53;;;;;;;5.95;2.92;;;;;;;;;;5131989;27;20167;-77
2021/08/02 04:02:18;;;;;;;6.13;3.05;;;;;;;;;;5131919;27;20530;-77
2021/08/02 04:04:44;;;;;;;7.88;2.90;;;;;;;;;;5132480;27;20023;-77
2021/08/02 04:07:09;;;;;;;9.27;3.20;;;;;;;;;;5113684;27;20116;-77
2021/08/02 04:09:36;;;;;;;8.68;2.92;;;;;;;;;;5131776;27;20025;-77
2021/08/02 04:12:02;;;;;;;6.80;2.80;;;;;;;;;;5129909;27;20019;-76
2021/08/02 04:14:27;;;;;;;10.30;2.45;;;;;;;;;;5129755;27;20026;-76
2021/08/02 04:16:52;;;;;;;5.85;3.25;;;;;;;;;;5131354;28;20378;-76
2021/08/02 04:19:18;;;;;;;7.05;3.53;;;;;;;;;;5131549;28;20034;-78
2021/08/02 04:21:43;;;;;;;11.32;3.05;;;;;;;;;;5132049;28;20027;-76
2021/08/02 04:24:09;;;;;;;6.15;2.78;;;;;;;;;;5131830;28;20021;-77
2021/08/02 04:26:34;;;;;;;8.18;2.92;;;;;;;;;;5131648;28;20115;-77
2021/08/02 04:29:00;;;;;;;5.55;2.50;;;;;;;;;;5131679;28;20068;-77
2021/08/02 04:31:31;;;;;;;7.45;2.20;;;;;;;;;;5131787;28;20077;-77
2021/08/02 04:33:57;;;;;;;6.88;2.70;;;;;;;;;;5131723;28;20047;-77
2021/08/02 04:36:23;;;;;;;3.97;2.00;;;;;;;;;;5131686;28;20031;-76
2021/08/02 04:38:49;;;;;;;6.43;2.20;;;;;;;;;;5131811;27;20023;-77
2021/08/02 04:41:15;;;;;;;5.75;2.30;;;;;;;;;;5135597;27;20026;-77
2021/08/02 04:43:40;;;;;;;6.50;2.20;;;;;;;;;;5135672;27;20080;-77
2021/08/02 04:46:06;;;;;;;5.25;2.00;;;;;;;;;;5135470;27;20068;-77
2021/08/02 04:48:32;;;;;;;4.38;1.92;;;;;;;;;;5135779;27;20050;-77
2021/08/02 04:50:57;;;;;;;5.55;1.98;;;;;;;;;;5135749;27;20023;-76
2021/08/02 04:53:23;;;;;;;4.32;2.08;;;;;;;;;;5135510;27;20027;-77
2021/08/02 04:55:48;;;;;;;5.13;2.03;;;;;;;;;;5135548;27;20030;-77
2021/08/02 04:58:13;;;;;;;4.65;1.92;;;;;;;;;;5135345;27;20019;-76
2021/08/02 05:00:39;;;;;;;5.95;2.30;;;;;;;;;;5135288;27;20019;-76
2021/08/02 05:03:04;;;;;;;5.53;2.30;;;;;;;;;;5135439;27;20015;-77
2021/08/02 05:05:30;;;;;;;8.85;2.95;;;;;;;;;;5135126;27;20027;-76
2021/08/02 05:07:55;;;;;;;5.35;2.35;;;;;;;;;;5135174;27;20098;-77
2021/08/02 05:10:21;;;;;;;4.90;2.53;;;;;;;;;;5134875;27;20015;-76
2021/08/02 05:12:46;;;;;;;6.50;2.30;;;;;;;;;;5135092;27;20375;-77
2021/08/02 05:15:12;;;;;;;2.97;1.63;;;;;;;;;;5135023;27;20026;-75
2021/08/02 05:17:39;;;;;;;3.67;1.60;;;;;;;;;;5134465;27;20077;-77
2021/08/02 05:20:07;;;;;;;2.83;1.40;;;;;;;;;;5134889;27;20379;-76
2021/08/02 05:22:33;;;;;;;7.32;1.55;;;;;;;;;;5133785;27;20051;-77
2021/08/02 05:24:58;;;;;;;3.35;1.42;;;;;;;;;;5134770;27;20034;-77
2021/08/02 05:27:24;;;;;;;4.72;1.48;;;;;;;;;;5134868;27;20011;-76
2021/08/02 05:29:50;;;;;;;5.57;1.52;;;;;;;;;;5133562;27;20019;-77
2021/08/02 05:32:15;;;;;;;3.20;1.80;;;;;;;;;;5134734;27;20027;-77
2021/08/02 05:34:41;;;;;;;4.13;1.50;;;;;;;;;;5134480;27;20041;-77
2021/08/02 05:37:10;;;;;;;3.42;1.20;;;;;;;;;;5133863;27;20015;-77
2021/08/02 05:39:37;;;;;;;4.03;1.45;;;;;;;;;;5134752;27;20015;-78
2021/08/02 05:42:04;;;;;;;4.53;1.20;;;;;;;;;;5134826;27;20035;-77
2021/08/02 05:44:29;;;;;;;3.35;0.88;;;;;;;;;;5134303;27;20027;-77
2021/08/02 05:46:54;;;;;;;3.42;1.17;;;;;;;;;;5133593;27;20043;-78
2021/08/02 05:49:20;;;;;;;2.70;1.15;;;;;;;;;;5134300;27;20054;-78
2021/08/02 05:51:46;;;;;;;5.63;1.25;;;;;;;;;;5132836;27;20031;-78
2021/08/02 05:54:12;;;;;;;4.00;1.17;;;;;;;;;;5134252;27;20480;-77
2021/08/02 05:56:37;;;;;;;3.05;1.10;;;;;;;;;;5134067;27;20098;-76
2021/08/02 05:59:03;;;;;;;3.28;1.30;;;;;;;;;;5134109;27;20023;-77
2021/08/02 06:01:28;;;;;;;2.22;1.00;;;;;;;;;;5133972;27;20031;-76
2021/08/02 06:03:53;;;;;;;4.20;1.10;;;;;;;;;;5134086;27;20451;-75
2021/08/02 06:06:19;;;;;;;2.95;1.00;;;;;;;;;;5133922;27;20027;-75
2021/08/02 06:08:44;;;;;;;2.50;1.42;;;;;;;;;;5132638;27;20015;-74
2021/08/02 06:11:10;;;;;;;4.22;1.20;;;;;;;;;;5133813;27;20079;-76
2021/08/02 06:13:35;;;;;;;3.10;1.10;;;;;;;;;;5133641;27;20030;-75
2021/08/02 06:16:01;;;;;;;4.30;1.17;;;;;;;;;;5134123;27;20072;-75
2021/08/02 06:18:27;;;;;;;3.30;1.20;;;;;;;;;;5132299;27;20042;-75
2021/08/02 06:20:52;;;;;;;3.45;1.17;;;;;;;;;;5133748;27;20025;-75
2021/08/02 06:23:17;;;;;;;3.75;1.23;;;;;;;;;;5133954;27;20478;-74
2021/08/02 06:25:43;;;;;;;3.03;1.20;;;;;;;;;;5133522;27;20072;-74
2021/08/02 06:28:08;;;;;;;3.10;1.08;;;;;;;;;;5132954;27;20073;-74
2021/08/02 06:30:34;;;;;;;2.72;1.10;;;;;;;;;;5133305;27;20019;-74
2021/08/02 06:32:59;;;;;;;5.25;1.23;;;;;;;;;;5133521;27;20022;-74
2021/08/02 06:35:26;;;;;;;2.40;1.00;;;;;;;;;;5131904;27;20015;-75
2021/08/02 06:37:51;;;;;;;3.85;1.23;;;;;;;;;;5132398;27;20019;-74
2021/08/02 06:40:17;;;;;;;3.85;1.20;;;;;;;;;;5133409;27;20022;-75
2021/08/02 06:42:42;;;;;;;4.45;1.45;;;;;;;;;;5133094;27;20015;-74
2021/08/02 06:45:08;;;;;;;3.70;0.85;;;;;;;;;;5133279;27;20061;-74
2021/08/02 06:47:34;;;;;;;2.88;0.90;;;;;;;;;;5132900;27;20084;-73
2021/08/02 06:49:59;;;;;;;2.28;0.80;;;;;;;;;;5114621;27;20054;-73
2021/08/02 06:52:25;;;;;;;5.95;1.20;;;;;;;;;;5133069;27;20023;-73
2021/08/02 06:54:50;;;;;;;2.25;1.05;;;;;;;;;;5133151;27;20030;-73
2021/08/02 06:57:16;;;;;;;4.57;0.98;;;;;;;;;;5133454;27;20023;-73
2021/08/02 06:59:41;;;;;;;3.22;0.80;;;;;;;;;;5132807;27;20037;-75
2021/08/02 07:02:07;;;;;;;1.75;0.80;;;;;;;;;;5132450;27;20134;-74
2021/08/02 07:04:32;;;;;;;3.25;1.02;;;;;;;;;;5132740;27;20027;-74
2021/08/02 07:06:58;;;;;;;4.13;1.00;;;;;;;;;;5133099;27;20024;-74
2021/08/02 07:09:24;;;;;;;4.03;1.00;;;;;;;;;;5132751;27;20015;-74
2021/08/02 07:11:49;;;;;;;3.53;1.05;;;;;;;;;;5131814;27;20019;-75
2021/08/02 07:14:15;;;;;;;3.17;0.90;;;;;;;;;;5122155;27;20159;-74
2021/08/02 07:16:40;;;;;;;3.60;1.10;;;;;;;;;;5117854;27;20028;-74
2021/08/02 07:19:06;;;;;;;5.40;1.38;;;;;;;;;;5121187;27;20111;-73
2021/08/02 07:21:31;;;;;;;2.70;0.80;;;;;;;;;;5119234;27;20019;-74
2021/08/02 07:23:58;;;;;;;3.05;0.80;;;;;;;;;;5129388;27;20027;-73
2021/08/02 07:26:24;;;;;;;2.78;0.90;;;;;;;;;;5132327;27;20041;-73
2021/08/02 07:28:50;;;;;;;3.25;1.00;;;;;;;;;;5131549;27;20105;-73
2021/08/02 07:31:15;;;;;;;3.30;0.90;;;;;;;;;;5119816;27;20030;-73
2021/08/02 07:33:41;;;;;;;3.00;0.93;;;;;;;;;;5121112;27;20087;-74
2021/08/02 07:36:10;;;;;;;2.55;1.05;;;;;;;;;;5126291;27;20019;-74
2021/08/02 07:38:38;;;;;;;4.57;0.90;;;;;;;;;;5123263;27;20076;-73
2021/08/02 07:41:04;;;;;;;4.82;1.00;;;;;;;;;;5132274;27;20403;-74
2021/08/02 07:43:29;;;;;;;4.32;1.00;;;;;;;;;;5131971;27;20023;-73
2021/08/02 07:45:55;;;;;;;1.80;0.77;;;;;;;;;;5126406;27;20108;-74
2021/08/02 07:48:20;;;;;;;2.95;0.90;;;;;;;;;;5130478;27;20099;-73
2021/08/02 07:50:47;;;;;;;3.20;0.90;;;;;;;;;;5116641;27;20043;-74
2021/08/02 07:53:12;;;;;;;3.35;0.90;;;;;;;;;;5119144;27;20089;-74
2021/08/02 07:55:38;;;;;;;2.40;0.90;;;;;;;;;;5127064;27;20114;-73
2021/08/02 07:58:10;;;;;;;5.38;0.90;;;;;;;;;;5132316;27;20019;-74
2021/08/02 08:00:36;;;;;;;4.68;0.88;;;;;;;;;;5131510;27;20019;-74
2021/08/02 08:03:01;;;;;;;3.90;0.77;;;;;;;;;;5130223;27;20492;-74
2021/08/02 08:05:29;;;;;;;4.47;0.90;;;;;;;;;;5125922;27;20023;-75
2021/08/02 08:07:54;;;;;;;4.05;0.93;;;;;;;;;;5112372;28;20088;-74
2021/08/02 08:10:21;;;;;;;5.30;1.05;;;;;;;;;;5124548;27;20019;-74
2021/08/02 08:12:47;;;;;;;2.95;1.00;;;;;;;;;;5129389;27;20038;-74
2021/08/02 08:15:13;;;;;;;4.07;1.00;;;;;;;;;;5131323;27;20355;-75
2021/08/02 08:17:39;;;;;;;3.60;0.90;;;;;;;;;;5118719;28;20113;-73
2021/08/02 08:20:07;;;;;;;3.15;0.70;;;;;;;;;;5123356;28;20019;-73
2021/08/02 08:22:33;;;;;;;5.22;1.10;;;;;;;;;;5123596;28;20026;-75
2021/08/02 08:24:58;;;;;;;3.85;0.80;;;;;;;;;;5128287;28;20019;-74
2021/08/02 08:27:23;;;;;;;3.15;0.85;;;;;;;;;;5122141;28;20094;-74
2021/08/02 08:29:49;;;;;;;3.00;0.90;;;;;;;;;;5132442;28;20121;-75
2021/08/02 08:32:14;;;;;;;3.33;0.88;;;;;;;;;;5132481;28;20015;-75
2021/08/02 08:34:40;;;;;;;2.60;0.90;;;;;;;;;;5131327;28;20458;-74
2021/08/02 08:37:05;;;;;;;2.72;0.80;;;;;;;;;;5131543;28;20090;-73
2021/08/02 08:39:31;;;;;;;4.05;1.02;;;;;;;;;;5131310;28;20039;-74
2021/08/02 08:41:58;;;;;;;3.47;0.93;;;;;;;;;;5131557;28;20272;-74
2021/08/02 08:44:26;;;;;;;2.83;1.00;;;;;;;;;;5131538;28;20019;-74
2021/08/02 08:46:52;;;;;;;3.58;1.00;;;;;;;;;;5121420;28;20040;-74
2021/08/02 08:49:17;;;;;;;3.85;0.90;;;;;;;;;;5110835;28;20636;-74
2021/08/02 08:51:43;;;;;;;2.60;0.90;;;;;;;;;;5111022;28;20059;-74
2021/08/02 08:54:09;;;;;;;2.03;0.85;;;;;;;;;;5110893;28;20140;-75
2021/08/02 08:56:35;;;;;;;1.50;0.65;;;;;;;;;;5110664;28;20033;-74
2021/08/02 08:59:01;;;;;;;4.45;1.00;;;;;;;;;;5110721;28;20491;-76
2021/08/02 09:01:28;;;;;;;3.00;0.70;;;;;;;;;;5110875;28;20070;-75
2021/08/02 09:03:54;;;;;;;2.22;0.82;;;;;;;;;;5110737;28;20502;-75
2021/08/02 09:06:20;;;;;;;1.65;0.60;;;;;;;;;;5110762;28;20031;-74
2021/08/02 09:08:46;;;;;;;5.03;0.80;;;;;;;;;;5110469;28;20033;-74
2021/08/02 09:11:20;;;;;;;4.03;0.80;;;;;;;;;;5110642;28;20019;-75
2021/08/02 09:13:46;;;;;;;3.33;0.82;;;;;;;;;;5126246;28;20072;-75
2021/08/02 09:16:14;;;;;;;5.78;1.00;;;;;;;;;;5131289;28;20533;-74
2021/08/02 09:18:40;;;;;;;3.42;0.80;;;;;;;;;;5130929;28;20046;-74
2021/08/02 09:21:07;;;;;;;1.80;0.82;;;;;;;;;;5131166;28;20069;-73
2021/08/02 09:23:34;;;;;;;3.28;1.00;;;;;;;;;;5131033;28;20072;-74
2021/08/02 09:26:01;;;;;;;3.47;0.85;;;;;;;;;;5132480;27;20070;-75
2021/08/02 09:28:27;;;;;;;5.35;0.88;;;;;;;;;;5116339;27;20062;-74
2021/08/02 09:31:02;;;;;;;1.70;0.70;;;;;;;;;;5134455;27;20023;-73
2021/08/02 09:33:42;;;;;;;2.75;0.52;;;;;;;;;;5134749;27;20426;-74
2021/08/02 09:36:07;;;;;;;2.72;0.65;;;;;;;;;;5134595;27;20094;-74
2021/08/02 09:38:33;;;;;;;5.30;0.90;;;;;;;;;;5134659;27;20109;-74
2021/08/02 09:40:58;;;;;;;2.53;0.90;;;;;;;;;;5134592;27;20450;-73
2021/08/02 09:43:29;;;;;;;2.25;0.77;;;;;;;;;;5134539;27;20083;-74
2021/08/02 09:45:57;;;;;;;1.85;0.50;;;;;;;;;;5134159;27;20470;-74
2021/08/02 09:48:40;;;;;;;3.55;1.10;;;;;;;;;;5134149;27;20043;-74
2021/08/02 09:51:09;;;;;;;2.13;0.90;;;;;;;;;;5134271;27;20482;-74
2021/08/02 09:53:42;;;;;;;2.40;0.85;;;;;;;;;;5134459;27;20058;-74
2021/08/02 09:56:12;;;;;;;4.57;0.80;;;;;;;;;;5134299;27;20047;-74
2021/08/02 09:58:41;;;;;;;3.58;0.70;;;;;;;;;;5133817;27;20019;-73
2021/08/02 10:01:06;;;;;;;1.38;0.68;;;;;;;;;;5134131;27;20053;-75
2021/08/02 10:03:33;;;;;;;2.80;0.80;;;;;;;;;;5134159;27;20062;-75
2021/08/02 10:05:59;;;;;;;1.98;0.60;;;;;;;;;;5133804;27;20027;-75
2021/08/02 10:08:25;;;;;;;3.53;0.80;;;;;;;;;;5133897;27;20120;-75
2021/08/02 10:10:51;;;;;;;1.70;0.80;;;;;;;;;;5134055;27;20135;-74
2021/08/02 10:13:43;;;;;;;4.50;0.90;;;;;;;;;;5133870;27;20071;-73
2021/08/02 10:16:13;;;;;;;4.30;0.60;;;;;;;;;;5130060;27;20035;-74
2021/08/02 10:18:39;;;;;;;2.03;0.80;;;;;;;;;;5133657;27;20030;-77
2021/08/02 10:21:09;;;;;;;4.25;0.70;;;;;;;;;;5133878;27;20015;-75
2021/08/02 10:23:35;;;;;;;2.03;0.68;;;;;;;;;;5133800;27;20027;-74
2021/08/02 10:26:01;;;;;;;3.22;0.90;;;;;;;;;;5133694;27;20023;-73
2021/08/02 10:28:27;;;;;;;4.30;0.70;;;;;;;;;;5133572;27;20023;-74
2021/08/02 10:31:04;;;;;;;2.25;0.70;;;;;;;;;;5133434;27;20024;-74
2021/08/02 10:33:39;;;;;;;2.33;0.50;;;;;;;;;;5115217;27;20019;-73
2021/08/02 10:36:18;;;;;;;2.80;0.90;;;;;;;;;;5133528;27;20027;-74
2021/08/02 10:38:46;;;;;;;4.63;0.82;;;;;;;;;;5132484;27;20110;-74
2021/08/02 10:41:30;;;;;;;3.33;0.70;;;;;;;;;;5115219;27;20159;-74
2021/08/02 10:43:57;;;;;;;2.80;0.80;;;;;;;;;;5133218;27;20023;-73
2021/08/02 10:46:25;;;;;;;1.33;0.77;;;;;;;;;;5133030;27;20049;-74
2021/08/02 10:48:53;;;;;;;2.95;0.85;;;;;;;;;;5133002;27;20087;-74
2021/08/02 10:51:23;;;;;;;2.75;0.55;;;;;;;;;;5133141;27;20034;-74
2021/08/02 10:54:00;;;;;;;2.28;0.80;;;;;;;;;;5133167;27;20023;-74
2021/08/02 10:56:27;;;;;;;3.85;0.70;;;;;;;;;;5133517;27;20019;-74
2021/08/02 10:58:53;;;;;;;3.28;0.80;;;;;;;;;;5132887;27;20027;-74
2021/08/02 11:01:20;;;;;;;3.97;1.00;;;;;;;;;;5133110;27;20042;-74
2021/08/02 11:03:46;;;;;;;2.80;0.70;;;;;;;;;;5132815;27;20027;-74
2021/08/02 11:06:19;;;;;;;2.72;0.88;;;;;;;;;;5132674;27;20023;-74
2021/08/02 11:08:56;;;;;;;2.35;0.57;;;;;;;;;;5114056;27;20020;-73
2021/08/02 11:11:31;;;;;;;2.97;0.80;;;;;;;;;;5132828;27;20023;-74
2021/08/02 11:14:12;;;;;;;2.65;0.80;;;;;;;;;;5114010;27;20037;-74
2021/08/02 11:16:44;;;;;;;3.92;0.70;;;;;;;;;;5132682;27;20378;-74
2021/08/02 11:19:23;;;;;;;2.17;0.90;;;;;;;;;;5132626;27;20023;-74
2021/08/02 11:21:58;;;;;;;4.93;1.00;;;;;;;;;;5132413;27;20093;-74
2021/08/02 11:24:28;;;;;;;5.13;0.95;;;;;;;;;;5132535;27;20027;-74
2021/08/02 11:26:55;;;;;;;2.20;0.70;;;;;;;;;;5132363;27;20023;-74
2021/08/02 11:29:29;;;;;;;3.33;0.70;;;;;;;;;;5113974;27;20018;-73
2021/08/02 11:32:00;;;;;;;4.50;0.90;;;;;;;;;;5132192;27;20027;-74
2021/08/02 11:34:28;;;;;;;5.93;0.90;;;;;;;;;;5132360;27;20029;-74
2021/08/02 11:37:20;;;;;;;6.78;1.05;;;;;;;;;;5132142;27;20026;-74
2021/08/02 11:39:55;;;;;;;3.13;0.80;;;;;;;;;;5128472;27;20398;-74
2021/08/02 11:42:21;;;;;;;4.78;1.20;;;;;;;;;;5132291;27;20031;-75
2021/08/02 11:44:52;;;;;;;5.60;1.05;;;;;;;;;;5132087;27;20539;-75
2021/08/02 11:47:21;;;;;;;3.95;1.02;;;;;;;;;;5131870;27;20038;-74
2021/08/02 11:49:48;;;;;;;4.25;1.00;;;;;;;;;;5131778;27;20023;-74
2021/08/02 11:52:16;;;;;;;4.60;1.10;;;;;;;;;;5131994;27;20074;-74
2021/08/02 11:54:42;;;;;;;4.53;1.00;;;;;;;;;;5131813;27;20031;-74
2021/08/02 11:57:20;;;;;;;2.70;1.00;;;;;;;;;;5132310;27;20087;-73
2021/08/02 12:00:00;;;;;;;3.53;0.90;;;;;;;;;;5131763;27;20026;-73
2021/08/02 12:02:36;;;;;;;2.85;0.77;;;;;;;;;;5131944;27;20027;-74
2021/08/02 12:05:08;;;;;;;3.22;1.10;;;;;;;;;;5132054;27;20352;-74
2021/08/02 12:07:33;;;;;;;2.22;0.80;;;;;;;;;;5131739;27;20091;-73
2021/08/02 12:10:15;;;;;;;5.55;1.00;;;;;;;;;;5131649;27;20023;-73
2021/08/02 12:12:42;;;;;;;4.90;0.98;;;;;;;;;;5131675;27;20344;-73
2021/08/02 12:15:09;;;;;;;2.50;0.82;;;;;;;;;;5131839;27;20058;-74
2021/08/02 12:17:46;;;;;;;3.10;0.75;;;;;;;;;;5131772;27;20072;-73
2021/08/02 12:20:12;;;;;;;3.20;0.90;;;;;;;;;;5131759;28;20084;-74
2021/08/02 12:22:38;;;;;;;5.57;1.13;;;;;;;;;;5131668;28;20382;-74
2021/08/02 12:25:05;;;;;;;4.20;0.88;;;;;;;;;;5131353;28;20027;-74
2021/08/02 12:27:31;;;;;;;6.72;0.90;;;;;;;;;;5131861;28;20324;-75
2021/08/02 12:30:02;;;;;;;1.65;0.73;;;;;;;;;;5131399;28;20016;-74
2021/08/02 12:32:40;;;;;;;3.60;1.00;;;;;;;;;;5131607;28;20467;-73
2021/08/02 12:35:14;;;;;;;3.38;0.93;;;;;;;;;;5131309;28;20023;-74
2021/08/02 12:37:41;;;;;;;5.03;0.93;;;;;;;;;;5131604;28;20027;-73
2021/08/02 12:40:09;;;;;;;3.92;0.80;;;;;;;;;;5131310;28;20018;-74
2021/08/02 12:42:36;;;;;;;45.85;2.15;;;;;;;;;;5131527;28;20118;-74
2021/08/02 12:45:03;;;;;;;3.38;0.90;;;;;;;;;;5131274;28;20378;-73
2021/08/02 12:47:28;;;;;;;4.53;1.05;;;;;;;;;;5131149;28;20133;-73
2021/08/02 12:49:57;;;;;;;4.63;0.90;;;;;;;;;;5131161;28;20106;-72
2021/08/02 12:52:25;;;;;;;4.57;0.80;;;;;;;;;;5131271;28;20547;-73
2021/08/02 12:54:51;;;;;;;3.97;0.95;;;;;;;;;;5131270;28;20019;-73
2021/08/02 12:57:16;;;;;;;4.47;1.00;;;;;;;;;;5131490;28;20598;-73
2021/08/02 12:59:42;;;;;;;4.63;0.90;;;;;;;;;;5131616;27;20023;-73
2021/08/02 13:02:07;;;;;;;4.60;1.05;;;;;;;;;;5130447;27;20025;-73
2021/08/02 13:04:32;;;;;;;3.83;1.13;;;;;;;;;;5126121;27;20027;-77
2021/08/02 13:06:59;;;;;;;5.80;1.35;;;;;;;;;;5127615;27;20043;-77
2021/08/02 13:09:24;;;;;;;6.32;1.40;;;;;;;;;;5119609;27;20405;-77
2021/08/02 13:11:50;;;;;;;5.75;1.20;;;;;;;;;;5133513;27;20035;-77
2021/08/02 13:14:15;;;;;;;5.07;1.30;;;;;;;;;;5133824;27;20102;-76
2021/08/02 13:16:41;;;;;;;2.90;1.10;;;;;;;;;;5120384;27;20036;-77
2021/08/02 13:19:06;;;;;;;5.03;1.33;;;;;;;;;;5114100;28;20027;-74
2021/08/02 13:21:32;;;;;;;8.32;1.70;;;;;;;;;;5127459;27;20023;-76
2021/08/02 13:26:57;;;;;;;5.57;1.42;;;;;;;;;;5058750;28;20060;-76
2021/08/02 13:29:24;;;;;;;4.97;1.52;;;;;;;;;;5130009;27;20030;-76
2021/08/02 13:31:51;;;;;;;4.80;1.23;;;;;;;;;;5128967;27;20068;-75
2021/08/02 13:34:17;;;;;;;3.25;1.10;;;;;;;;;;5127803;27;20422;-75
2021/08/02 13:36:43;;;;;;;4.88;1.30;;;;;;;;;;5135063;27;20023;-75
2021/08/02 13:39:09;;;;;;;3.33;1.17;;;;;;;;;;5132824;27;20490;-75
2021/08/02 13:41:35;;;;;;;8.15;2.00;;;;;;;;;;5134601;27;20352;-75
2021/08/02 13:44:01;;;;;;;8.60;1.63;;;;;;;;;;5131104;27;20042;-76
2021/08/02 13:46:28;;;;;;;12.05;2.03;;;;;;;;;;5133145;27;20051;-75
2021/08/02 13:48:54;;;;;;;16.40;2.53;;;;;;;;;;5121453;27;20052;-75
2021/08/02 13:51:20;;;;;;;8.75;1.90;;;;;;;;;;5134524;27;20023;-75
2021/08/02 13:53:45;;;;;;;9.75;2.45;;;;;;;;;;5129225;27;20475;-76
2021/08/02 13:56:11;;;;;;;6.03;1.95;;;;;;;;;;5133102;27;20106;-75
2021/08/02 13:58:39;;;;;;;9.57;2.10;;;;;;;;;;5134274;27;20035;-75
2021/08/02 14:01:06;;;;;;;7.00;1.98;;;;;;;;;;5133465;27;20015;-74
2021/08/02 14:03:32;;;;;;;7.57;2.10;;;;;;;;;;5133056;27;20502;-75
2021/08/02 14:05:58;;;;;;;7.90;1.73;;;;;;;;;;5126704;27;20027;-74
2021/08/02 14:08:24;;;;;;;8.07;1.98;;;;;;;;;;5129748;27;20030;-74
2021/08/02 14:10:51;;;;;;;4.45;1.35;;;;;;;;;;5133777;27;20023;-75
2021/08/02 14:13:17;;;;;;;6.10;1.50;;;;;;;;;;5132320;27;20027;-76
2021/08/02 14:15:50;;;;;;;6.65;1.58;;;;;;;;;;5127949;27;20235;-76
2021/08/02 14:18:37;;;;;;;7.20;1.77;;;;;;;;;;5121904;27;20543;-75
2021/08/02 14:21:04;;;;;;;4.78;1.48;;;;;;;;;;5127998;27;20484;-75
2021/08/02 14:23:30;;;;;;;7.97;1.58;;;;;;;;;;5133264;27;20039;-75
2021/08/02 14:25:56;;;;;;;4.82;1.60;;;;;;;;;;5126928;27;20031;-75
2021/08/02 14:28:22;;;;;;;5.43;1.60;;;;;;;;;;5133748;27;20019;-75
2021/08/02 14:30:51;;;;;;;3.58;1.17;;;;;;;;;;5132857;27;20053;-75
2021/08/02 14:33:17;;;;;;;3.25;1.08;;;;;;;;;;5128654;27;20110;-75
2021/08/02 14:35:44;;;;;;;4.43;1.10;;;;;;;;;;5119843;27;20030;-76
2021/08/02 14:38:09;;;;;;;5.28;1.40;;;;;;;;;;5113123;28;20114;-76
2021/08/02 14:40:36;;;;;;;5.65;1.50;;;;;;;;;;5131472;27;20114;-76
2021/08/02 14:43:11;;;;;;;5.85;1.40;;;;;;;;;;5131995;27;20034;-75
2021/08/02 14:45:41;;;;;;;4.68;1.40;;;;;;;;;;5128247;27;20122;-75
2021/08/02 14:48:11;;;;;;;5.95;1.58;;;;;;;;;;5129704;27;20035;-76
2021/08/02 14:50:40;;;;;;;8.13;2.00;;;;;;;;;;5133084;27;20030;-75